createdAt,value
2023-04-26T00:00:12.120Z,4.13
2023-04-26T00:01:15.773Z,4.13
2023-04-26T00:02:19.227Z,4.13
2023-04-26T00:03:56.624Z,4.06
2023-04-26T00:05:03.139Z,4.06
2023-04-26T00:06:08.298Z,4.06
2023-04-26T00:07:44.135Z,4.06
2023-04-26T00:08:47.615Z,4.06
2023-04-26T00:09:52.042Z,4.00
2023-04-26T00:11:27.761Z,4.00
2023-04-26T00:12:31.360Z,4.00
2023-04-26T00:13:34.739Z,4.00
2023-04-26T00:15:10.329Z,3.94
2023-04-26T00:16:14.113Z,3.94
2023-04-26T00:17:18.375Z,3.94
2023-04-26T00:18:54.809Z,3.88
2023-04-26T00:19:59.022Z,3.88
2023-04-26T00:21:02.671Z,3.88
2023-04-26T00:22:38.436Z,3.81
2023-04-26T00:23:41.873Z,3.81
2023-04-26T00:24:45.385Z,3.81
2023-04-26T00:26:21.182Z,3.75
2023-04-26T00:27:24.595Z,3.75
2023-04-26T00:28:28.340Z,3.69
2023-04-26T00:30:04.266Z,3.69
2023-04-26T00:31:07.814Z,3.69
2023-04-26T00:32:12.069Z,3.69
2023-04-26T00:33:47.978Z,3.69
2023-04-26T00:34:51.721Z,3.69
2023-04-26T00:35:55.309Z,3.69
2023-04-26T00:37:30.877Z,3.69
2023-04-26T00:38:34.229Z,3.69
2023-04-26T00:39:37.934Z,3.69
2023-04-26T00:41:13.450Z,3.75
2023-04-26T00:42:16.978Z,3.75
2023-04-26T00:43:20.494Z,3.75
2023-04-26T00:44:56.287Z,3.75
2023-04-26T00:46:00.015Z,3.75
2023-04-26T00:47:04.178Z,3.75
2023-04-26T00:48:39.975Z,3.81
2023-04-26T00:49:43.806Z,3.81
2023-04-26T00:50:47.542Z,3.81
2023-04-26T00:52:23.385Z,3.81
2023-04-26T00:53:27.112Z,3.75
2023-04-26T00:54:30.421Z,3.75
2023-04-26T00:56:06.254Z,3.75
2023-04-26T00:57:09.884Z,3.75
2023-04-26T00:58:13.146Z,3.75
2023-04-26T00:59:48.736Z,3.75
2023-04-26T01:00:12.768Z,3.75
2023-04-26T01:01:16.383Z,3.75
2023-04-26T01:02:20.528Z,3.75
2023-04-26T01:03:57.824Z,3.75
2023-04-26T01:05:02.930Z,3.75
2023-04-26T01:06:06.565Z,3.69
2023-04-26T01:07:42.382Z,3.69
2023-04-26T01:08:46.077Z,3.69
2023-04-26T01:09:50.744Z,3.63
2023-04-26T01:11:26.467Z,3.63
2023-04-26T01:12:30.223Z,3.56
2023-04-26T01:13:33.784Z,3.56
2023-04-26T01:15:09.687Z,3.56
2023-04-26T01:16:13.100Z,3.56
2023-04-26T01:17:17.236Z,3.50
2023-04-26T01:18:53.309Z,3.50
2023-04-26T01:19:56.979Z,3.44
2023-04-26T01:21:02.748Z,3.44
2023-04-26T01:22:39.239Z,3.44
2023-04-26T01:23:42.958Z,3.44
2023-04-26T01:24:46.630Z,3.44
2023-04-26T01:26:22.487Z,3.44
2023-04-26T01:27:26.083Z,3.44
2023-04-26T01:28:29.560Z,3.38
2023-04-26T01:30:05.847Z,3.38
2023-04-26T01:31:09.347Z,3.38
2023-04-26T01:32:13.630Z,3.38
2023-04-26T01:33:49.716Z,3.38
2023-04-26T01:34:53.225Z,3.38
2023-04-26T01:35:56.744Z,3.38
2023-04-26T01:37:32.638Z,3.31
2023-04-26T01:38:36.377Z,3.31
2023-04-26T01:39:39.931Z,3.31
2023-04-26T01:41:15.851Z,3.31
2023-04-26T01:42:19.357Z,3.31
2023-04-26T01:43:22.743Z,3.25
2023-04-26T01:44:58.552Z,3.25
2023-04-26T01:46:02.340Z,3.25
2023-04-26T01:47:06.423Z,3.25
2023-04-26T01:48:42.376Z,3.25
2023-04-26T01:49:46.787Z,3.25
2023-04-26T01:50:50.312Z,3.19
2023-04-26T01:52:25.695Z,3.19
2023-04-26T01:53:29.520Z,3.19
2023-04-26T01:54:32.989Z,3.19
2023-04-26T01:56:08.822Z,3.19
2023-04-26T01:57:12.457Z,3.13
2023-04-26T01:58:16.171Z,3.13
2023-04-26T01:59:51.693Z,3.13
2023-04-26T02:00:12.802Z,3.13
2023-04-26T02:01:16.508Z,3.13
2023-04-26T02:02:20.789Z,3.13
2023-04-26T02:03:57.494Z,3.06
2023-04-26T02:05:01.065Z,3.06
2023-04-26T02:06:05.109Z,3.06
2023-04-26T02:07:40.965Z,3.06
2023-04-26T02:08:44.478Z,3.06
2023-04-26T02:09:48.746Z,3.06
2023-04-26T02:11:24.711Z,3.06
2023-04-26T02:12:28.195Z,3.06
2023-04-26T02:13:31.862Z,3.06
2023-04-26T02:15:07.238Z,3.06
2023-04-26T02:16:10.911Z,3.13
2023-04-26T02:17:15.045Z,3.06
2023-04-26T02:18:51.195Z,3.06
2023-04-26T02:19:55.000Z,3.06
2023-04-26T02:20:58.642Z,3.06
2023-04-26T02:22:34.404Z,3.06
2023-04-26T02:23:37.919Z,3.06
2023-04-26T02:24:41.227Z,3.06
2023-04-26T02:26:17.188Z,3.06
2023-04-26T02:27:20.662Z,3.06
2023-04-26T02:28:24.400Z,3.06
2023-04-26T02:30:18.365Z,3.06
2023-04-26T02:31:23.073Z,3.06
2023-04-26T02:32:27.361Z,3.00
2023-04-26T02:34:03.621Z,3.00
2023-04-26T02:35:07.111Z,3.00
2023-04-26T02:36:10.950Z,3.00
2023-04-26T02:37:46.681Z,3.00
2023-04-26T02:38:50.530Z,2.94
2023-04-26T02:39:54.418Z,2.94
2023-04-26T02:41:29.977Z,2.88
2023-04-26T02:42:33.494Z,2.88
2023-04-26T02:43:37.199Z,2.88
2023-04-26T02:45:12.791Z,2.88
2023-04-26T02:46:17.384Z,2.88
2023-04-26T02:47:21.340Z,2.88
2023-04-26T02:48:57.597Z,2.88
2023-04-26T02:50:01.203Z,2.88
2023-04-26T02:51:04.946Z,2.81
2023-04-26T02:52:41.036Z,2.75
2023-04-26T02:53:44.484Z,2.75
2023-04-26T02:54:48.015Z,2.75
2023-04-26T02:56:23.635Z,2.69
2023-04-26T02:57:27.332Z,2.69
2023-04-26T02:58:30.671Z,2.69
2023-04-26T03:00:12.428Z,2.69
2023-04-26T03:01:16.472Z,2.69
2023-04-26T03:02:20.471Z,2.69
2023-04-26T03:03:58.578Z,2.69
2023-04-26T03:05:03.139Z,2.69
2023-04-26T03:06:06.823Z,2.69
2023-04-26T03:07:42.744Z,2.69
2023-04-26T03:08:46.125Z,2.69
2023-04-26T03:09:50.183Z,2.69
2023-04-26T03:11:25.865Z,2.69
2023-04-26T03:12:30.975Z,2.69
2023-04-26T03:13:34.562Z,2.69
2023-04-26T03:15:10.437Z,2.69
2023-04-26T03:16:14.083Z,2.69
2023-04-26T03:17:18.204Z,2.69
2023-04-26T03:18:54.457Z,2.69
2023-04-26T03:19:59.549Z,2.69
2023-04-26T03:21:04.659Z,2.69
2023-04-26T03:22:40.522Z,2.69
2023-04-26T03:23:44.361Z,2.63
2023-04-26T03:24:47.852Z,2.69
2023-04-26T03:26:23.424Z,2.63
2023-04-26T03:27:26.903Z,2.63
2023-04-26T03:28:30.347Z,2.63
2023-04-26T03:30:06.758Z,2.56
2023-04-26T03:31:10.172Z,2.56
2023-04-26T03:32:14.417Z,2.56
2023-04-26T03:33:50.653Z,2.56
2023-04-26T03:34:54.246Z,2.56
2023-04-26T03:35:57.722Z,2.56
2023-04-26T03:37:33.378Z,2.56
2023-04-26T03:38:39.858Z,2.56
2023-04-26T03:39:43.864Z,2.56
2023-04-26T03:41:19.608Z,2.56
2023-04-26T03:42:23.519Z,2.50
2023-04-26T03:43:26.788Z,2.50
2023-04-26T03:45:05.511Z,2.50
2023-04-26T03:46:09.293Z,2.50
2023-04-26T03:47:13.404Z,2.50
2023-04-26T03:48:49.660Z,2.44
2023-04-26T03:49:53.341Z,2.44
2023-04-26T03:50:56.906Z,2.44
2023-04-26T03:52:32.356Z,2.44
2023-04-26T03:53:36.009Z,2.44
2023-04-26T03:54:39.385Z,2.44
2023-04-26T03:56:14.986Z,2.44
2023-04-26T03:57:18.526Z,2.44
2023-04-26T03:58:22.148Z,2.38
2023-04-26T03:59:58.400Z,2.44
2023-04-26T04:00:12.123Z,2.44
2023-04-26T04:01:15.912Z,2.38
2023-04-26T04:02:19.725Z,2.38
2023-04-26T04:03:56.772Z,2.38
2023-04-26T04:05:41.623Z,2.38
2023-04-26T04:06:45.488Z,2.38
2023-04-26T04:07:49.182Z,2.38
2023-04-26T04:09:25.408Z,2.38
2023-04-26T04:10:29.145Z,2.38
2023-04-26T04:11:32.791Z,2.31
2023-04-26T04:13:11.914Z,2.31
2023-04-26T04:14:15.479Z,2.31
2023-04-26T04:15:19.306Z,2.31
2023-04-26T04:16:55.704Z,2.31
2023-04-26T04:17:59.230Z,2.31
2023-04-26T04:19:03.464Z,2.31
2023-04-26T04:20:39.150Z,2.31
2023-04-26T04:21:42.817Z,2.25
2023-04-26T04:22:46.122Z,2.25
2023-04-26T04:24:21.909Z,2.25
2023-04-26T04:25:26.771Z,2.25
2023-04-26T04:26:30.383Z,2.25
2023-04-26T04:28:06.106Z,2.25
2023-04-26T04:29:09.624Z,2.25
2023-04-26T04:30:13.432Z,2.25
2023-04-26T04:31:49.218Z,2.25
2023-04-26T04:32:52.882Z,2.25
2023-04-26T04:33:56.742Z,2.25
2023-04-26T04:35:32.195Z,2.25
2023-04-26T04:36:35.786Z,2.19
2023-04-26T04:37:39.399Z,2.19
2023-04-26T04:39:15.152Z,2.19
2023-04-26T04:40:18.666Z,2.19
2023-04-26T04:41:22.363Z,2.19
2023-04-26T04:42:58.236Z,2.19
2023-04-26T04:44:01.987Z,2.19
2023-04-26T04:45:05.749Z,2.19
2023-04-26T04:46:41.223Z,2.19
2023-04-26T04:47:45.526Z,2.19
2023-04-26T04:48:49.979Z,2.19
2023-04-26T04:50:25.916Z,2.19
2023-04-26T04:51:29.318Z,2.13
2023-04-26T04:52:32.833Z,2.13
2023-04-26T04:54:08.732Z,2.13
2023-04-26T04:55:12.532Z,2.13
2023-04-26T04:56:16.426Z,2.19
2023-04-26T04:57:52.096Z,2.19
2023-04-26T04:58:55.586Z,2.13
2023-04-26T04:59:58.978Z,2.13
2023-04-26T05:00:12.276Z,2.13
2023-04-26T05:01:15.798Z,2.13
2023-04-26T05:02:20.190Z,2.19
2023-04-26T05:03:58.109Z,2.19
2023-04-26T05:05:03.897Z,2.19
2023-04-26T05:06:07.750Z,2.19
2023-04-26T05:07:43.482Z,2.25
2023-04-26T05:08:47.058Z,2.25
2023-04-26T05:09:50.620Z,2.25
2023-04-26T05:11:26.529Z,2.25
2023-04-26T05:12:30.103Z,2.31
2023-04-26T05:13:33.740Z,2.31
2023-04-26T05:15:11.795Z,2.38
2023-04-26T05:16:15.286Z,2.38
2023-04-26T05:17:19.399Z,2.38
2023-04-26T05:18:55.254Z,2.44
2023-04-26T05:20:01.690Z,2.44
2023-04-26T05:21:05.310Z,2.44
2023-04-26T05:22:41.128Z,2.50
2023-04-26T05:23:44.666Z,2.50
2023-04-26T05:24:48.514Z,2.50
2023-04-26T05:26:24.597Z,2.50
2023-04-26T05:27:28.194Z,2.50
2023-04-26T05:28:31.552Z,2.44
2023-04-26T05:30:07.287Z,2.44
2023-04-26T05:31:11.628Z,2.44
2023-04-26T05:32:15.812Z,2.44
2023-04-26T05:33:51.526Z,2.50
2023-04-26T05:34:55.244Z,2.50
2023-04-26T05:35:58.618Z,2.44
2023-04-26T05:37:37.207Z,2.50
2023-04-26T05:38:40.667Z,2.50
2023-04-26T05:39:44.376Z,2.50
2023-04-26T05:41:20.139Z,2.50
2023-04-26T05:42:23.556Z,2.50
2023-04-26T05:43:27.247Z,2.56
2023-04-26T05:45:03.178Z,2.56
2023-04-26T05:46:06.985Z,2.56
2023-04-26T05:47:11.275Z,2.56
2023-04-26T05:48:47.079Z,2.63
2023-04-26T05:49:50.617Z,2.63
2023-04-26T05:50:54.153Z,2.63
2023-04-26T05:52:29.548Z,2.63
2023-04-26T05:53:33.116Z,2.63
2023-04-26T05:54:37.113Z,2.63
2023-04-26T05:56:12.947Z,2.63
2023-04-26T05:57:16.551Z,2.63
2023-04-26T05:58:20.580Z,2.63
2023-04-26T05:59:56.502Z,2.69
2023-04-26T06:00:12.891Z,2.69
2023-04-26T06:01:16.244Z,2.69
2023-04-26T06:02:20.007Z,2.75
2023-04-26T06:04:00.701Z,2.81
2023-04-26T06:05:08.119Z,2.88
2023-04-26T06:06:13.441Z,2.88
2023-04-26T06:07:48.994Z,2.94
2023-04-26T06:08:52.831Z,2.94
2023-04-26T06:09:57.553Z,2.94
2023-04-26T06:11:33.624Z,3.00
2023-04-26T06:12:37.066Z,3.06
2023-04-26T06:13:41.239Z,3.06
2023-04-26T06:15:36.489Z,3.13
2023-04-26T06:16:41.750Z,3.13
2023-04-26T06:17:48.065Z,3.19
2023-04-26T06:19:24.114Z,3.19
2023-04-26T06:20:27.892Z,3.19
2023-04-26T06:21:31.489Z,3.25
2023-04-26T06:23:07.722Z,3.38
2023-04-26T06:24:12.646Z,3.38
2023-04-26T06:25:16.119Z,3.44
2023-04-26T06:26:51.996Z,3.50
2023-04-26T06:27:55.482Z,3.56
2023-04-26T06:28:59.075Z,3.69
2023-04-26T06:30:34.369Z,3.69
2023-04-26T06:31:38.422Z,3.88
2023-04-26T06:32:41.972Z,3.94
2023-04-26T06:34:17.799Z,4.06
2023-04-26T06:35:21.332Z,4.13
2023-04-26T06:36:24.854Z,4.19
2023-04-26T06:38:01.078Z,4.31
2023-04-26T06:39:04.686Z,4.44
2023-04-26T06:40:08.316Z,4.50
2023-04-26T06:41:44.310Z,4.69
2023-04-26T06:42:50.361Z,4.75
2023-04-26T06:43:54.591Z,4.81
2023-04-26T06:45:30.644Z,4.94
2023-04-26T06:46:35.899Z,4.94
2023-04-26T06:47:39.923Z,5.06
2023-04-26T06:49:16.292Z,5.06
2023-04-26T06:50:19.982Z,5.13
2023-04-26T06:51:23.639Z,5.25
2023-04-26T06:52:59.690Z,5.31
2023-04-26T06:54:04.225Z,5.44
2023-04-26T06:55:11.073Z,5.50
2023-04-26T06:56:47.300Z,5.50
2023-04-26T06:57:53.683Z,5.56
2023-04-26T06:58:57.486Z,5.56
2023-04-26T07:00:12.554Z,5.63
2023-04-26T07:01:16.901Z,5.63
2023-04-26T07:02:21.311Z,5.63
2023-04-26T07:03:59.011Z,5.75
2023-04-26T07:05:05.374Z,5.75
2023-04-26T07:06:10.194Z,5.75
2023-04-26T07:07:48.863Z,5.81
2023-04-26T07:08:52.694Z,5.81
2023-04-26T07:09:58.165Z,5.81
2023-04-26T07:11:34.368Z,5.88
2023-04-26T07:12:37.961Z,5.88
2023-04-26T07:13:44.456Z,6.00
2023-04-26T07:15:20.705Z,6.06
2023-04-26T07:16:24.615Z,6.13
2023-04-26T07:17:28.770Z,6.19
2023-04-26T07:19:04.837Z,6.31
2023-04-26T07:20:08.403Z,6.44
2023-04-26T07:21:12.407Z,6.50
2023-04-26T07:22:48.468Z,6.69
2023-04-26T07:23:52.211Z,6.75
2023-04-26T07:24:56.206Z,6.81
2023-04-26T07:26:32.997Z,6.88
2023-04-26T07:27:36.856Z,6.88
2023-04-26T07:28:40.342Z,6.94
2023-04-26T07:30:16.034Z,6.94
2023-04-26T07:31:19.533Z,6.94
2023-04-26T07:32:23.110Z,6.94
2023-04-26T07:34:00.089Z,7.00
2023-04-26T07:35:03.434Z,7.00
2023-04-26T07:36:06.652Z,7.00
2023-04-26T07:37:43.551Z,7.00
2023-04-26T07:38:46.973Z,6.94
2023-04-26T07:39:50.522Z,7.00
2023-04-26T07:41:26.239Z,7.00
2023-04-26T07:42:30.767Z,7.06
2023-04-26T07:43:34.177Z,7.06
2023-04-26T07:45:10.287Z,7.13
2023-04-26T07:46:14.383Z,7.13
2023-04-26T07:47:18.484Z,7.19
2023-04-26T07:48:54.723Z,7.19
2023-04-26T07:49:58.266Z,7.19
2023-04-26T07:51:02.034Z,7.25
2023-04-26T07:52:37.720Z,7.31
2023-04-26T07:53:41.122Z,7.38
2023-04-26T07:54:45.006Z,7.31
2023-04-26T07:56:22.017Z,7.38
2023-04-26T07:57:25.242Z,7.44
2023-04-26T07:58:28.459Z,7.44
2023-04-26T08:00:12.256Z,7.44
2023-04-26T08:01:16.883Z,7.44
2023-04-26T08:02:25.096Z,7.38
2023-04-26T08:04:17.669Z,7.38
2023-04-26T08:05:22.973Z,7.38
2023-04-26T08:06:29.269Z,7.44
2023-04-26T08:08:04.965Z,7.44
2023-04-26T08:09:10.972Z,7.50
2023-04-26T08:10:14.600Z,7.56
2023-04-26T08:11:50.206Z,7.56
2023-04-26T08:12:54.157Z,7.63
2023-04-26T08:13:57.638Z,7.69
2023-04-26T08:15:33.252Z,7.75
2023-04-26T08:16:36.723Z,7.69
2023-04-26T08:17:40.760Z,7.69
2023-04-26T08:19:19.606Z,7.69
2023-04-26T08:20:23.300Z,7.69
2023-04-26T08:21:26.908Z,7.69
2023-04-26T08:23:02.346Z,7.69
2023-04-26T08:24:06.136Z,7.75
2023-04-26T08:25:09.655Z,7.81
2023-04-26T08:26:45.289Z,7.88
2023-04-26T08:27:48.790Z,7.88
2023-04-26T08:28:52.356Z,7.94
2023-04-26T08:30:27.752Z,7.94
2023-04-26T08:31:31.434Z,8.00
2023-04-26T08:32:35.105Z,8.00
2023-04-26T08:34:11.009Z,8.13
2023-04-26T08:35:14.345Z,8.13
2023-04-26T08:36:17.796Z,8.19
2023-04-26T08:37:53.374Z,8.25
2023-04-26T08:38:56.858Z,8.31
2023-04-26T08:40:00.634Z,8.31
2023-04-26T08:41:36.394Z,8.25
2023-04-26T08:42:39.655Z,8.19
2023-04-26T08:43:43.270Z,8.25
2023-04-26T08:45:19.385Z,8.31
2023-04-26T08:46:23.027Z,8.31
2023-04-26T08:47:27.112Z,8.31
2023-04-26T08:49:02.908Z,8.31
2023-04-26T08:50:06.329Z,8.38
2023-04-26T08:51:10.133Z,8.44
2023-04-26T08:52:45.662Z,8.56
2023-04-26T08:53:49.401Z,8.56
2023-04-26T08:54:56.441Z,8.56
2023-04-26T08:56:32.161Z,8.56
2023-04-26T08:57:35.641Z,8.63
2023-04-26T08:58:39.129Z,8.63
2023-04-26T09:00:11.845Z,8.69
2023-04-26T09:01:15.386Z,8.75
2023-04-26T09:02:19.252Z,8.75
2023-04-26T09:03:56.651Z,8.81
2023-04-26T09:05:02.475Z,8.88
2023-04-26T09:06:07.022Z,8.81
2023-04-26T09:07:42.752Z,8.75
2023-04-26T09:08:45.996Z,8.75
2023-04-26T09:09:49.521Z,8.75
2023-04-26T09:11:25.110Z,8.69
2023-04-26T09:12:28.738Z,8.69
2023-04-26T09:13:32.322Z,8.69
2023-04-26T09:15:07.946Z,8.63
2023-04-26T09:16:11.808Z,8.56
2023-04-26T09:17:15.901Z,8.56
2023-04-26T09:18:52.176Z,8.50
2023-04-26T09:19:55.866Z,8.44
2023-04-26T09:21:00.202Z,8.44
2023-04-26T09:22:35.804Z,8.44
2023-04-26T09:23:39.530Z,8.44
2023-04-26T09:24:43.135Z,8.44
2023-04-26T09:26:18.797Z,8.44
2023-04-26T09:27:22.411Z,8.38
2023-04-26T09:28:25.784Z,8.38
2023-04-26T09:30:02.157Z,8.38
2023-04-26T09:31:05.900Z,8.44
2023-04-26T09:32:09.694Z,8.44
2023-04-26T09:33:45.622Z,8.44
2023-04-26T09:34:49.380Z,8.50
2023-04-26T09:35:52.853Z,8.44
2023-04-26T09:37:28.453Z,8.44
2023-04-26T09:38:57.117Z,8.44
2023-04-26T09:40:00.775Z,8.50
2023-04-26T09:41:36.525Z,8.56
2023-04-26T09:42:40.245Z,8.56
2023-04-26T09:43:43.719Z,8.56
2023-04-26T09:45:19.670Z,8.63
2023-04-26T09:46:23.460Z,8.63
2023-04-26T09:47:27.696Z,8.63
2023-04-26T09:49:04.124Z,8.63
2023-04-26T09:50:07.787Z,8.63
2023-04-26T09:51:11.695Z,8.69
2023-04-26T09:52:47.675Z,8.75
2023-04-26T09:53:51.225Z,8.81
2023-04-26T09:54:54.741Z,8.88
2023-04-26T09:56:50.044Z,9.00
2023-04-26T09:57:53.606Z,9.00
2023-04-26T09:58:57.208Z,9.00
2023-04-26T10:00:12.535Z,9.00
2023-04-26T10:01:16.640Z,9.00
2023-04-26T10:02:20.923Z,9.00
2023-04-26T10:03:58.362Z,9.00
2023-04-26T10:05:03.363Z,9.00
2023-04-26T10:06:09.237Z,9.00
2023-04-26T10:07:45.606Z,9.00
2023-04-26T10:08:49.362Z,9.06
2023-04-26T10:09:53.969Z,9.13
2023-04-26T10:11:29.772Z,9.13
2023-04-26T10:12:33.309Z,9.19
2023-04-26T10:13:37.133Z,9.19
2023-04-26T10:15:12.965Z,9.19
2023-04-26T10:16:16.722Z,9.31
2023-04-26T10:17:20.629Z,9.31
2023-04-26T10:18:59.392Z,9.38
2023-04-26T10:20:03.115Z,9.31
2023-04-26T10:21:06.898Z,9.31
2023-04-26T10:22:42.881Z,9.50
2023-04-26T10:23:46.494Z,9.63
2023-04-26T10:24:50.438Z,9.88
2023-04-26T10:26:26.274Z,10.13
2023-04-26T10:27:30.080Z,10.19
2023-04-26T10:28:33.824Z,10.25
2023-04-26T10:30:16.490Z,10.31
2023-04-26T10:31:20.084Z,10.44
2023-04-26T10:32:23.777Z,10.50
2023-04-26T10:33:59.857Z,10.75
2023-04-26T10:35:04.174Z,10.81
2023-04-26T10:36:07.800Z,10.88
2023-04-26T10:37:43.862Z,10.88
2023-04-26T10:38:47.923Z,10.81
2023-04-26T10:39:52.038Z,10.69
2023-04-26T10:41:30.116Z,10.31
2023-04-26T10:42:33.797Z,10.19
2023-04-26T10:43:39.598Z,10.13
2023-04-26T10:45:16.467Z,10.00
2023-04-26T10:46:20.589Z,9.94
2023-04-26T10:47:24.789Z,9.75
2023-04-26T10:49:00.857Z,9.44
2023-04-26T10:50:07.573Z,9.25
2023-04-26T10:51:11.164Z,9.13
2023-04-26T10:52:46.989Z,9.00
2023-04-26T10:53:51.094Z,9.00
2023-04-26T10:54:54.983Z,8.94
2023-04-26T10:56:32.656Z,8.81
2023-04-26T10:57:36.266Z,8.75
2023-04-26T10:58:40.010Z,8.75
2023-04-26T11:00:12.256Z,8.75
2023-04-26T11:01:18.996Z,8.75
2023-04-26T11:02:23.071Z,8.75
2023-04-26T11:04:01.166Z,8.75
2023-04-26T11:05:05.705Z,8.75
2023-04-26T11:06:09.553Z,8.75
2023-04-26T11:07:45.629Z,8.75
2023-04-26T11:08:49.289Z,8.81
2023-04-26T11:09:53.374Z,8.81
2023-04-26T11:11:29.120Z,8.88
2023-04-26T11:12:32.799Z,8.88
2023-04-26T11:13:36.548Z,8.88
2023-04-26T11:15:12.468Z,9.00
2023-04-26T11:16:16.431Z,9.00
2023-04-26T11:17:20.742Z,9.06
2023-04-26T11:18:57.176Z,9.13
2023-04-26T11:20:00.900Z,9.13
2023-04-26T11:21:04.812Z,9.19
2023-04-26T11:22:40.265Z,9.19
2023-04-26T11:23:43.879Z,9.13
2023-04-26T11:24:47.879Z,9.19
2023-04-26T11:26:23.430Z,9.19
2023-04-26T11:27:26.969Z,9.25
2023-04-26T11:28:32.716Z,9.19
2023-04-26T11:30:10.364Z,9.25
2023-04-26T11:31:14.015Z,9.25
2023-04-26T11:32:18.052Z,9.25
2023-04-26T11:33:54.247Z,9.19
2023-04-26T11:34:58.050Z,9.19
2023-04-26T11:36:01.810Z,9.19
2023-04-26T11:37:37.636Z,9.06
2023-04-26T11:38:41.204Z,9.06
2023-04-26T11:39:46.501Z,9.00
2023-04-26T11:41:22.274Z,9.00
2023-04-26T11:42:25.764Z,8.94
2023-04-26T11:43:29.659Z,8.94
2023-04-26T11:45:05.902Z,8.88
2023-04-26T11:46:09.661Z,8.81
2023-04-26T11:47:13.849Z,8.81
2023-04-26T11:48:50.043Z,8.81
2023-04-26T11:49:54.154Z,8.69
2023-04-26T11:50:57.985Z,8.63
2023-04-26T11:52:33.880Z,8.63
2023-04-26T11:53:37.705Z,8.63
2023-04-26T11:54:41.567Z,8.63
2023-04-26T11:56:17.314Z,8.63
2023-04-26T11:57:21.112Z,8.63
2023-04-26T11:58:24.688Z,8.69
2023-04-26T12:00:00.943Z,8.69
2023-04-26T12:00:12.314Z,8.69
2023-04-26T12:01:15.666Z,8.69
2023-04-26T12:02:19.455Z,8.75
2023-04-26T12:03:57.321Z,8.81
2023-04-26T12:05:05.689Z,8.81
2023-04-26T12:06:10.038Z,8.88
2023-04-26T12:07:45.956Z,8.88
2023-04-26T12:08:49.817Z,8.88
2023-04-26T12:09:53.388Z,8.88
2023-04-26T12:11:30.980Z,8.88
2023-04-26T12:12:34.675Z,8.94
2023-04-26T12:13:38.125Z,8.94
2023-04-26T12:15:15.155Z,9.06
2023-04-26T12:16:26.228Z,9.13
2023-04-26T12:17:31.062Z,9.13
2023-04-26T12:19:07.134Z,9.19
2023-04-26T12:20:10.886Z,9.19
2023-04-26T12:21:16.465Z,9.25
2023-04-26T12:22:55.363Z,9.25
2023-04-26T12:23:59.090Z,9.38
2023-04-26T12:25:02.818Z,9.38
2023-04-26T12:26:38.776Z,9.44
2023-04-26T12:27:43.516Z,9.50
2023-04-26T12:28:47.785Z,9.50
2023-04-26T12:30:23.632Z,9.50
2023-04-26T12:31:27.092Z,9.50
2023-04-26T12:32:31.251Z,9.50
2023-04-26T12:34:25.076Z,9.56
2023-04-26T12:35:28.627Z,9.63
2023-04-26T12:36:32.398Z,9.63
2023-04-26T12:38:08.328Z,9.75
2023-04-26T12:39:12.519Z,9.81
2023-04-26T12:40:16.340Z,9.81
2023-04-26T12:41:52.428Z,9.81
2023-04-26T12:42:56.115Z,9.75
2023-04-26T12:43:59.830Z,9.75
2023-04-26T12:45:37.538Z,9.69
2023-04-26T12:46:41.530Z,9.69
2023-04-26T12:47:45.414Z,9.69
2023-04-26T12:49:22.242Z,9.63
2023-04-26T12:50:25.928Z,9.63
2023-04-26T12:51:31.952Z,9.63
2023-04-26T12:53:07.710Z,9.63
2023-04-26T12:54:11.226Z,9.56
2023-04-26T12:55:15.036Z,9.50
2023-04-26T12:56:51.891Z,9.44
2023-04-26T12:57:55.558Z,9.38
2023-04-26T12:58:59.794Z,9.31
2023-04-26T13:00:12.909Z,9.31
2023-04-26T13:01:16.589Z,9.31
2023-04-26T13:02:20.717Z,9.31
2023-04-26T13:03:58.123Z,9.13
2023-04-26T13:05:03.880Z,9.13
2023-04-26T13:06:07.395Z,9.06
2023-04-26T13:07:43.543Z,8.94
2023-04-26T13:08:47.536Z,8.81
2023-04-26T13:09:51.198Z,8.81
2023-04-26T13:11:28.659Z,8.69
2023-04-26T13:12:32.292Z,8.69
2023-04-26T13:13:43.734Z,8.69
2023-04-26T13:15:20.567Z,8.75
2023-04-26T13:16:24.364Z,8.75
2023-04-26T13:17:28.390Z,8.75
2023-04-26T13:19:04.763Z,8.75
2023-04-26T13:20:08.491Z,8.75
2023-04-26T13:21:15.353Z,8.69
2023-04-26T13:22:51.299Z,8.69
2023-04-26T13:23:54.826Z,8.63
2023-04-26T13:24:58.435Z,8.63
2023-04-26T13:26:34.111Z,8.63
2023-04-26T13:27:37.757Z,8.69
2023-04-26T13:28:41.403Z,8.69
2023-04-26T13:30:17.076Z,8.69
2023-04-26T13:31:20.911Z,8.75
2023-04-26T13:32:25.204Z,8.75
2023-04-26T13:34:01.728Z,8.81
2023-04-26T13:35:05.398Z,8.81
2023-04-26T13:36:09.065Z,8.81
2023-04-26T13:37:44.965Z,8.81
2023-04-26T13:38:48.909Z,8.81
2023-04-26T13:39:52.519Z,8.88
2023-04-26T13:41:28.109Z,8.88
2023-04-26T13:42:31.540Z,8.88
2023-04-26T13:43:35.150Z,8.81
2023-04-26T13:45:11.025Z,8.88
2023-04-26T13:46:18.505Z,8.88
2023-04-26T13:47:23.056Z,8.88
2023-04-26T13:48:59.479Z,9.00
2023-04-26T13:50:03.245Z,9.00
2023-04-26T13:51:07.298Z,9.06
2023-04-26T13:52:43.101Z,9.06
2023-04-26T13:53:46.591Z,9.19
2023-04-26T13:54:50.294Z,9.25
2023-04-26T13:56:26.380Z,9.31
2023-04-26T13:57:30.040Z,9.38
2023-04-26T13:58:33.625Z,9.44
2023-04-26T14:00:12.664Z,9.50
2023-04-26T14:01:16.384Z,9.50
2023-04-26T14:02:20.711Z,9.50
2023-04-26T14:03:58.203Z,9.50
2023-04-26T14:05:03.664Z,9.56
2023-04-26T14:06:08.348Z,9.56
2023-04-26T14:07:44.194Z,9.56
2023-04-26T14:08:48.045Z,9.56
2023-04-26T14:09:51.637Z,9.56
2023-04-26T14:11:27.327Z,9.50
2023-04-26T14:12:48.887Z,9.56
2023-04-26T14:13:54.456Z,9.50
2023-04-26T14:15:30.300Z,9.44
2023-04-26T14:16:34.021Z,9.44
2023-04-26T14:17:37.819Z,9.44
2023-04-26T14:19:13.868Z,9.38
2023-04-26T14:20:17.673Z,9.31
2023-04-26T14:21:21.489Z,9.31
2023-04-26T14:22:57.398Z,9.25
2023-04-26T14:24:01.083Z,9.19
2023-04-26T14:25:04.915Z,9.19
2023-04-26T14:26:40.680Z,9.06
2023-04-26T14:27:44.417Z,9.00
2023-04-26T14:28:50.598Z,8.94
2023-04-26T14:30:26.432Z,8.81
2023-04-26T14:31:30.045Z,8.81
2023-04-26T14:32:34.192Z,8.75
2023-04-26T14:34:10.109Z,8.69
2023-04-26T14:35:13.744Z,8.69
2023-04-26T14:36:17.408Z,8.69
2023-04-26T14:37:53.262Z,8.63
2023-04-26T14:38:57.491Z,8.63
2023-04-26T14:40:03.322Z,8.63
2023-04-26T14:41:39.285Z,8.56
2023-04-26T14:42:43.114Z,8.56
2023-04-26T14:43:47.193Z,8.56
2023-04-26T14:45:30.370Z,8.50
2023-04-26T14:46:45.442Z,8.50
2023-04-26T14:47:49.294Z,8.50
2023-04-26T14:49:25.495Z,8.50
2023-04-26T14:50:28.910Z,8.44
2023-04-26T14:51:32.426Z,8.44
2023-04-26T14:53:11.596Z,8.44
2023-04-26T14:54:15.423Z,8.44
2023-04-26T14:55:19.360Z,8.44
2023-04-26T14:56:55.331Z,8.44
2023-04-26T14:57:58.949Z,8.44
2023-04-26T14:59:04.064Z,8.44
2023-04-26T15:00:12.060Z,8.44
2023-04-26T15:01:15.890Z,8.50
2023-04-26T15:02:20.311Z,8.50
2023-04-26T15:04:00.221Z,8.50
2023-04-26T15:05:06.455Z,8.56
2023-04-26T15:06:10.393Z,8.56
2023-04-26T15:08:03.645Z,8.56
2023-04-26T15:09:07.644Z,8.56
2023-04-26T15:10:11.922Z,8.63
2023-04-26T15:11:47.783Z,8.63
2023-04-26T15:12:51.560Z,8.69
2023-04-26T15:13:55.303Z,8.75
2023-04-26T15:15:30.893Z,8.75
2023-04-26T15:16:34.551Z,8.81
2023-04-26T15:17:38.791Z,8.81
2023-04-26T15:19:14.635Z,8.81
2023-04-26T15:20:18.376Z,8.81
2023-04-26T15:21:22.185Z,8.88
2023-04-26T15:22:58.012Z,8.88
2023-04-26T15:24:01.528Z,8.88
2023-04-26T15:25:05.073Z,8.88
2023-04-26T15:26:40.642Z,8.94
2023-04-26T15:27:44.293Z,9.00
2023-04-26T15:28:48.051Z,9.00
2023-04-26T15:30:23.820Z,9.06
2023-04-26T15:31:27.523Z,9.06
2023-04-26T15:32:31.666Z,9.13
2023-04-26T15:34:08.109Z,9.19
2023-04-26T15:35:12.974Z,9.25
2023-04-26T15:36:16.481Z,9.31
2023-04-26T15:37:51.974Z,9.38
2023-04-26T15:38:55.523Z,9.38
2023-04-26T15:39:58.993Z,9.44
2023-04-26T15:41:35.326Z,9.50
2023-04-26T15:42:38.891Z,9.44
2023-04-26T15:43:42.445Z,9.50
2023-04-26T15:45:18.333Z,9.50
2023-04-26T15:46:22.051Z,9.50
2023-04-26T15:47:27.971Z,9.50
2023-04-26T15:49:04.366Z,9.44
2023-04-26T15:50:07.881Z,9.44
2023-04-26T15:51:11.446Z,9.50
2023-04-26T15:52:47.373Z,9.50
2023-04-26T15:53:50.853Z,9.50
2023-04-26T15:54:54.321Z,9.50
2023-04-26T15:56:29.929Z,9.50
2023-04-26T15:57:33.512Z,9.44
2023-04-26T15:58:39.812Z,9.44
2023-04-26T16:00:12.834Z,9.44
2023-04-26T16:01:16.366Z,9.44
2023-04-26T16:02:20.464Z,9.50
2023-04-26T16:03:58.308Z,9.50
2023-04-26T16:05:42.018Z,9.50
2023-04-26T16:06:45.660Z,9.44
2023-04-26T16:07:49.460Z,9.44
2023-04-26T16:10:04.439Z,9.44
2023-04-26T16:11:08.121Z,9.44
2023-04-26T16:12:11.943Z,9.44
2023-04-26T16:13:47.744Z,9.44
2023-04-26T16:14:51.300Z,9.44
2023-04-26T16:15:55.052Z,9.44
2023-04-26T16:17:31.232Z,9.44
2023-04-26T16:18:35.253Z,9.44
2023-04-26T16:19:38.840Z,9.44
2023-04-26T16:21:14.936Z,9.31
2023-04-26T16:22:18.372Z,9.31
2023-04-26T16:23:23.062Z,9.31
2023-04-26T16:24:59.045Z,9.25
2023-04-26T16:26:02.737Z,9.25
2023-04-26T16:27:06.503Z,9.19
2023-04-26T16:28:42.330Z,9.19
2023-04-26T16:29:46.078Z,9.19